Hovedside
METAR-TAF:

METAR-TAF

Lufthavner :

Åre Östersund lufthavn

Östersund-Frösön, Sverige

breddegrad: 63-11N, lengdegrad: 014-30E, høyde over havet: 376 m

Gjeldene værobservasjon

Denne rapporten ble laget for 33 minutter siden, klokken 09:20 UTC
Flau vind
Temperatur -11°C
Luftfuktighet 85%
Trykk 1031 hPa
Sikt: 0500 m
Overskyet i en høyde av 100 ft
underkjølt tåke

METAR: ESNZ 130920Z 00000KT 0500 R12/1100N R30/0900N FZFG OVC001 M11/M13 Q1031

Tid: 10:53 (09:53 UTC)

Varsel

Denne rapporten ble laget for 1 time og 23 minutter siden, klokken 08:30 UTC
Varsel gyldig fra 13. klokken 09 UTC til 13. klokken 18 UTC
Vind 2 kt fra skiftende retning
Sikt 10 km eller mer
Overskyet i en høyde av 200 ft
Midlertidig
fra 13. klokken 09 UTC til 13. klokken 12 UTC
Sikt: 0150 m
i en høyde av 100 ft
underkjølt tåke
Sannsynlighet 40%
fra 13. klokken 10 UTC til 13. klokken 18 UTC
Få skyer i en høyde av 300 ft

TAF: ESNZ 130830Z 1309/1318 VRB02KT 9999 OVC002 TEMPO 1309/1312 0150 FZFG VV001 PROB40 1310/1318 FEW003

Værobservasjoner og værvarsel for over 4000 flyplasser (METAR- og TAF-rapporter).

Tilgjengelige stasjoner er representert av de røde og gule prikkene på kartet.

Hold musepekeren over prikken for å se navnet på stasjonen.

Klikk så for å se værobservasjoner og -varsler.

For å forandre kartet kan du klikke på den grønne knappen med svart kryss for å zoome inn, på den grønne knappen med strek for å zoome ut, eller på de grønne pilene for å se tilstøtende kart.


METAR-TAF: